Time;durP1;ratioP1;P1;durP2;ratioP2;P2;SDS_P1;SDS_P2;PMS_P1;PMS_P2;Temp;Humidity;BMP_temperature;BMP_pressure;BME280_temperature;BME280_humidity;BME280_pressure;Samples;Min_cycle;Max_cycle;Signal;HPM_P1;HPM_P2
2022/06/01 00:01:00;;;;;;;10.38;4.10;;;;;;;15.32;79.05;96513.91;5113892;28;20027;-67
2022/06/01 00:03:30;;;;;;;12.52;2.85;;;;;;;15.35;79.51;96511.94;5113793;28;20012;-65
2022/06/01 00:05:55;;;;;;;6.40;2.93;;;;;;;15.35;78.78;96508.47;5113726;28;20066;-64
2022/06/01 00:08:22;;;;;;;6.65;3.22;;;;;;;15.31;79.32;96514.81;5113819;28;20051;-67
2022/06/01 00:10:48;;;;;;;6.35;2.70;;;;;;;15.25;79.12;96514.25;5113869;28;20032;-64
2022/06/01 00:13:13;;;;;;;8.90;2.97;;;;;;;15.15;79.31;96516.56;5113808;28;20093;-63
2022/06/01 00:15:39;;;;;;;5.35;2.67;;;;;;;15.12;78.82;96522.03;5113708;28;20096;-65
2022/06/01 00:18:05;;;;;;;8.70;2.75;;;;;;;15.12;78.83;96513.25;5113600;28;20029;-65
2022/06/01 00:20:30;;;;;;;5.95;3.20;;;;;;;15.01;78.61;96520.00;5113422;28;20024;-62
2022/06/01 00:22:56;;;;;;;5.38;3.22;;;;;;;14.98;79.64;96524.56;5113682;28;20051;-63
2022/06/01 00:25:24;;;;;;;8.50;2.83;;;;;;;15.01;78.87;96529.66;5113763;28;20444;-64
2022/06/01 00:27:49;;;;;;;12.23;4.05;;;;;;;15.00;78.83;96535.88;5113585;28;20430;-63
2022/06/01 00:30:16;;;;;;;4.75;2.83;;;;;;;15.02;78.93;96531.38;5113562;28;20072;-64
2022/06/01 00:32:42;;;;;;;9.25;3.03;;;;;;;15.03;78.65;96533.06;5113582;28;20026;-64
2022/06/01 00:35:10;;;;;;;11.32;2.85;;;;;;;15.00;78.45;96528.84;5113226;28;20048;-66
2022/06/01 00:37:36;;;;;;;9.10;2.80;;;;;;;14.99;78.14;96528.91;5113587;28;20023;-65
2022/06/01 00:40:04;;;;;;;11.93;2.72;;;;;;;14.95;78.40;96524.72;5113500;28;20019;-65
2022/06/01 00:42:32;;;;;;;9.13;3.00;;;;;;;14.90;78.24;96533.75;5113274;28;20076;-65
2022/06/01 00:44:58;;;;;;;11.57;3.10;;;;;;;14.83;78.28;96534.16;5113322;28;20023;-64
2022/06/01 00:47:26;;;;;;;16.50;3.50;;;;;;;14.77;78.07;96533.56;5113429;28;20020;-65
2022/06/01 00:50:17;;;;;;;12.85;3.03;;;;;;;14.65;78.63;96521.91;5113390;28;20023;-64
2022/06/01 00:52:50;;;;;;;10.68;3.85;;;;;;;14.60;78.88;96517.84;5113381;28;20031;-64
2022/06/01 00:55:20;;;;;;;7.30;2.97;;;;;;;14.51;79.40;96522.66;5113284;28;20027;-64
2022/06/01 00:57:50;;;;;;;5.75;3.28;;;;;;;14.46;79.71;96511.56;5113368;28;20020;-64
2022/06/01 01:00:20;;;;;;;13.02;3.13;;;;;;;14.46;79.71;96513.31;5113398;28;20092;-66
2022/06/01 01:02:48;;;;;;;7.85;3.72;;;;;;;14.40;79.68;96514.50;5113321;28;20070;-65
2022/06/01 01:05:16;;;;;;;9.32;4.00;;;;;;;14.45;79.53;96509.00;5113161;28;20183;-62
2022/06/01 01:07:43;;;;;;;13.57;3.50;;;;;;;14.46;79.43;96511.56;5113140;28;20023;-63
2022/06/01 01:10:11;;;;;;;11.93;3.67;;;;;;;14.44;78.75;96508.13;5113194;28;20419;-63
2022/06/01 01:12:56;;;;;;;16.23;3.17;;;;;;;14.37;78.72;96509.41;5113269;28;20028;-65
2022/06/01 01:15:24;;;;;;;8.70;3.05;;;;;;;14.31;78.74;96510.59;5113128;28;20026;-64
2022/06/01 01:17:50;;;;;;;7.78;3.20;;;;;;;14.30;78.85;96508.88;5113099;28;20026;-65
2022/06/01 01:20:16;;;;;;;4.35;3.55;;;;;;;14.28;78.64;96508.13;5113125;28;20099;-66
2022/06/01 01:23:07;;;;;;;6.90;2.90;;;;;;;14.28;78.47;96508.13;5113133;28;20453;-65
2022/06/01 01:25:38;;;;;;;6.88;3.50;;;;;;;14.18;78.61;96510.38;5113075;28;20027;-63
2022/06/01 01:28:05;;;;;;;7.43;3.30;;;;;;;14.08;78.98;96503.91;5113038;28;20480;-66
2022/06/01 01:30:37;;;;;;;10.45;3.78;;;;;;;14.07;79.31;96508.34;5113106;28;20035;-66
2022/06/01 01:33:08;;;;;;;12.27;3.60;;;;;;;14.05;79.15;96501.47;5115770;28;20034;-66
2022/06/01 01:35:34;;;;;;;11.30;3.38;;;;;;;14.01;79.21;96504.25;5116562;28;20539;-62
2022/06/01 01:38:06;;;;;;;12.18;3.10;;;;;;;13.98;79.29;96495.66;5116559;27;20027;-64
2022/06/01 01:40:32;;;;;;;4.15;3.22;;;;;;;13.96;79.08;96495.75;5116666;28;20533;-66
2022/06/01 01:43:00;;;;;;;12.68;3.78;;;;;;;13.96;79.43;96492.25;5116727;27;20024;-63
2022/06/01 01:45:30;;;;;;;12.68;4.00;;;;;;;13.90;79.26;96491.66;5116430;28;20027;-64
2022/06/01 01:47:56;;;;;;;15.05;3.70;;;;;;;13.89;79.29;96492.59;5116479;28;20016;-62
2022/06/01 01:50:22;;;;;;;7.15;2.97;;;;;;;13.90;79.17;96488.16;5116562;28;20076;-64
2022/06/01 01:52:48;;;;;;;9.18;3.17;;;;;;;13.87;78.93;96477.81;5116256;28;20099;-64
2022/06/01 01:55:30;;;;;;;5.35;3.70;;;;;;;13.84;78.98;96496.38;5116200;28;20483;-63
2022/06/01 01:58:19;;;;;;;12.95;3.95;;;;;;;13.76;79.07;96487.09;5116330;27;20038;-62
2022/06/01 02:00:51;;;;;;;9.82;3.55;;;;;;;13.76;79.01;96494.16;5116232;28;20126;-61
2022/06/01 02:03:22;;;;;;;9.43;4.13;;;;;;;13.72;79.32;96497.84;5116202;27;20049;-62
2022/06/01 02:06:12;;;;;;;4.65;3.60;;;;;;;13.69;80.06;96493.63;5115989;28;20023;-66
2022/06/01 02:08:41;;;;;;;5.53;3.65;;;;;;;13.74;80.20;96499.50;5116010;28;20063;-64
2022/06/01 02:14:24;;;;;;;6.30;3.85;;;;;;;13.80;79.49;96497.47;5116037;28;20069;-62
2022/06/01 02:17:30;;;;;;;6.95;4.00;;;;;;;13.81;79.62;96502.66;5115763;28;20051;-65
2022/06/01 02:20:10;;;;;;;5.85;3.83;;;;;;;13.84;79.27;96491.97;5115370;28;20461;-64
2022/06/01 02:22:38;;;;;;;10.50;3.40;;;;;;;13.83;78.34;96505.19;5115847;28;20023;-64
2022/06/01 02:25:05;;;;;;;10.02;3.60;;;;;;;13.76;78.47;96505.50;5115618;28;20050;-65
2022/06/01 02:27:31;;;;;;;16.70;3.80;;;;;;;13.76;78.73;96497.63;5115624;28;20473;-65
2022/06/01 02:30:02;;;;;;;6.97;3.58;;;;;;;13.77;78.44;96495.84;5115642;28;20072;-63
2022/06/01 02:32:28;;;;;;;6.30;3.03;;;;;;;13.75;78.39;96495.06;5115538;27;20087;-65
2022/06/01 02:34:58;;;;;;;10.45;4.35;;;;;;;13.77;78.77;96503.75;5115520;28;20051;-64
2022/06/01 02:37:26;;;;;;;4.80;4.40;;;;;;;13.77;78.93;96506.38;5115534;28;20441;-64
2022/06/01 02:39:55;;;;;;;14.55;4.47;;;;;;;13.75;78.48;96497.69;5115408;28;20260;-65
2022/06/01 02:42:26;;;;;;;15.45;3.83;;;;;;;13.74;78.00;96503.91;5115241;28;20034;-62
2022/06/01 02:44:59;;;;;;;7.97;4.20;;;;;;;13.70;78.69;96497.09;5115272;28;20035;-61
2022/06/01 02:47:28;;;;;;;4.35;3.95;;;;;;;13.71;79.14;96498.78;5115226;28;20027;-66
2022/06/01 02:49:54;;;;;;;9.45;4.72;;;;;;;13.71;79.18;96502.28;5115348;28;20047;-66
2022/06/01 02:52:21;;;;;;;4.75;3.70;;;;;;;13.72;79.51;96508.38;5113851;28;20477;-62
2022/06/01 02:54:47;;;;;;;7.15;4.32;;;;;;;13.73;79.24;96510.09;5113906;28;20032;-67
2022/06/01 02:57:14;;;;;;;4.53;4.00;;;;;;;13.74;79.01;96510.00;5115068;28;20110;-66
2022/06/01 02:59:41;;;;;;;8.52;4.00;;;;;;;13.76;78.83;96507.31;5115036;28;20027;-64
2022/06/01 03:02:09;;;;;;;7.57;4.03;;;;;;;13.79;78.22;96503.66;5115051;28;20099;-66
2022/06/01 03:04:36;;;;;;;16.83;3.95;;;;;;;13.75;78.75;96514.34;5114858;27;20039;-64
2022/06/01 03:07:02;;;;;;;5.68;3.95;;;;;;;13.70;78.95;96512.88;5114920;28;20023;-63
2022/06/01 03:09:28;;;;;;;6.40;4.10;;;;;;;13.76;79.68;96515.19;5114909;28;20022;-63
2022/06/01 03:11:54;;;;;;;4.07;3.65;;;;;;;13.77;79.70;96509.84;5114845;28;20031;-66
2022/06/01 03:14:20;;;;;;;9.27;4.05;;;;;;;13.77;79.60;96515.13;5114749;28;20028;-65
2022/06/01 03:16:45;;;;;;;4.15;3.75;;;;;;;13.80;79.80;96516.72;5114550;28;20472;-62
2022/06/01 03:19:11;;;;;;;10.25;4.00;;;;;;;13.79;80.28;96515.03;5114577;28;20024;-64
2022/06/01 03:21:37;;;;;;;11.10;4.43;;;;;;;13.82;80.28;96517.47;5114646;28;20028;-65
2022/06/01 03:24:05;;;;;;;8.73;3.72;;;;;;;13.86;80.03;96512.94;5114584;28;20030;-65
2022/06/01 03:26:31;;;;;;;6.22;4.25;;;;;;;13.86;79.69;96513.78;5114555;28;20032;-63
2022/06/01 03:28:56;;;;;;;6.68;3.72;;;;;;;13.95;79.86;96516.84;5114533;28;20054;-64
2022/06/01 03:31:22;;;;;;;7.07;4.40;;;;;;;13.97;79.81;96518.47;5114314;28;20054;-62
2022/06/01 03:33:48;;;;;;;6.85;3.85;;;;;;;13.99;80.00;96505.25;5114408;28;20016;-63
2022/06/01 03:36:14;;;;;;;10.00;3.90;;;;;;;14.03;80.53;96514.69;5112735;28;20493;-63
2022/06/01 03:38:39;;;;;;;4.85;3.47;;;;;;;14.06;80.95;96516.31;5114354;28;20028;-65
2022/06/01 03:41:05;;;;;;;7.78;4.30;;;;;;;14.16;80.91;96520.16;5114150;28;20024;-62
2022/06/01 03:45:55;;;;;;;6.15;3.92;;;;;;;14.35;81.17;96511.25;5114262;28;20200;-66
2022/06/01 03:46:17;;;;;;;3.47;3.15;;;;;;;14.80;79.62;96518.53;5114038;28;20035;-67
2022/06/01 03:48:42;;;;;;;5.82;3.22;;;;;;;15.28;78.15;96529.91;5114143;28;20102;-65
2022/06/01 03:51:09;;;;;;;4.05;2.97;;;;;;;15.77;75.46;96527.09;5114039;28;20499;-66
2022/06/01 03:53:34;;;;;;;6.18;2.80;;;;;;;16.23;74.15;96531.44;5113903;27;20026;-66
2022/06/01 03:56:02;;;;;;;3.85;2.75;;;;;;;16.70;72.24;96531.22;5113518;28;20114;-63
2022/06/01 03:58:28;;;;;;;4.78;2.53;;;;;;;17.14;71.38;96529.38;5113905;28;20461;-63
2022/06/01 04:00:55;;;;;;;6.70;2.40;;;;;;;17.65;70.23;96530.47;5113884;28;20028;-61
2022/06/01 04:03:21;;;;;;;6.25;2.22;;;;;;;18.11;67.84;96533.59;5113873;28;20074;-66
2022/06/01 04:05:46;;;;;;;4.22;2.10;;;;;;;18.51;66.33;96524.66;5113726;28;20015;-64
2022/06/01 04:08:12;;;;;;;4.57;2.45;;;;;;;18.89;65.32;96532.63;5113852;28;20377;-67
2022/06/01 04:10:42;;;;;;;6.38;2.10;;;;;;;19.25;64.09;96535.41;5113774;28;20473;-66
2022/06/01 04:13:07;;;;;;;2.83;1.63;;;;;;;19.66;63.12;96528.81;5113700;28;20495;-67
2022/06/01 04:15:33;;;;;;;4.78;2.55;;;;;;;20.04;62.16;96534.00;5113618;28;20020;-67
2022/06/01 04:17:58;;;;;;;5.60;2.67;;;;;;;20.25;62.31;96530.66;5113746;28;20399;-67
2022/06/01 04:20:24;;;;;;;6.60;2.30;;;;;;;20.60;62.04;96527.06;5113598;28;20562;-67
2022/06/01 04:22:54;;;;;;;2.38;2.08;;;;;;;20.96;60.51;96530.41;5113656;28;20495;-67
2022/06/01 04:25:21;;;;;;;2.90;2.20;;;;;;;21.26;59.99;96536.03;5113689;28;20111;-66
2022/06/01 04:27:47;;;;;;;5.85;2.15;;;;;;;21.58;59.37;96536.97;5113475;28;20020;-64
2022/06/01 04:30:16;;;;;;;4.05;2.30;;;;;;;21.89;58.81;96531.81;5113496;28;20026;-67
2022/06/01 04:32:44;;;;;;;6.28;2.30;;;;;;;22.26;58.09;96526.97;5113629;28;20024;-65
2022/06/01 04:35:10;;;;;;;4.78;2.13;;;;;;;22.62;57.10;96526.59;5113272;28;20043;-66
2022/06/01 04:37:36;;;;;;;3.45;2.17;;;;;;;22.93;55.96;96538.06;5113577;28;20023;-66
2022/06/01 04:40:02;;;;;;;2.78;1.70;;;;;;;23.17;55.94;96546.66;5113412;28;20022;-64
2022/06/01 04:42:28;;;;;;;5.65;1.80;;;;;;;23.37;55.24;96538.72;5113367;28;20016;-67
2022/06/01 04:44:54;;;;;;;7.53;2.10;;;;;;;23.54;54.15;96535.34;5113400;28;20023;-68
2022/06/01 04:47:20;;;;;;;6.97;2.33;;;;;;;23.79;54.00;96542.94;5113448;28;20508;-64
2022/06/01 04:49:46;;;;;;;4.22;2.00;;;;;;;23.94;53.69;96544.22;5113492;28;20102;-69
2022/06/01 04:52:15;;;;;;;3.38;2.03;;;;;;;24.19;52.79;96546.44;5113347;28;20102;-69
2022/06/01 04:54:41;;;;;;;2.78;2.03;;;;;;;24.45;53.43;96540.47;5113427;28;20477;-67
2022/06/01 04:57:07;;;;;;;5.57;1.83;;;;;;;24.67;52.93;96539.25;5113379;28;20024;-66
2022/06/01 04:59:34;;;;;;;12.55;2.78;;;;;;;24.83;49.15;96541.28;5113334;28;20485;-62
2022/06/01 05:01:59;;;;;;;4.18;2.33;;;;;;;25.07;48.04;96542.59;5113231;28;20423;-68
2022/06/01 05:04:28;;;;;;;3.75;2.00;;;;;;;25.37;50.98;96547.75;5113096;28;20020;-65
2022/06/01 05:06:55;;;;;;;4.55;2.00;;;;;;;25.57;52.27;96548.47;5114307;28;20110;-67
2022/06/01 05:09:21;;;;;;;2.83;2.20;;;;;;;25.86;52.38;96551.91;5117113;28;20043;-65
2022/06/01 05:11:47;;;;;;;7.45;2.42;;;;;;;26.19;51.57;96548.66;5117206;28;20404;-68
2022/06/01 05:14:12;;;;;;;2.95;2.22;;;;;;;26.31;50.17;96550.06;5117116;28;20015;-66
2022/06/01 05:16:38;;;;;;;5.25;2.22;;;;;;;26.63;50.37;96553.13;5117043;28;20491;-67
2022/06/01 05:19:04;;;;;;;10.82;2.60;;;;;;;26.78;49.62;96550.66;5117085;28;20027;-64
2022/06/01 05:21:30;;;;;;;4.22;2.65;;;;;;;26.98;49.94;96554.00;5116957;27;20518;-67
2022/06/01 05:23:55;;;;;;;4.97;2.58;;;;;;;27.12;49.08;96557.06;5116887;28;20053;-63
2022/06/01 05:26:21;;;;;;;4.00;2.30;;;;;;;27.24;46.62;96554.91;5116894;28;20040;-64
2022/06/01 05:28:47;;;;;;;9.57;3.05;;;;;;;27.45;46.31;96554.44;5117012;27;20123;-67
2022/06/01 05:31:14;;;;;;;3.22;2.70;;;;;;;27.65;46.46;96556.00;5116848;28;20389;-69
2022/06/01 05:33:43;;;;;;;5.10;2.05;;;;;;;27.80;45.92;96557.03;5116787;27;20048;-65
2022/06/01 05:36:09;;;;;;;7.65;2.45;;;;;;;27.80;45.80;96554.34;5116425;28;20110;-64
2022/06/01 05:38:35;;;;;;;5.53;2.25;;;;;;;27.94;46.59;96550.16;5116698;28;20031;-61
2022/06/01 05:41:01;;;;;;;3.72;2.05;;;;;;;28.03;44.49;96547.44;5116502;28;20020;-66
2022/06/01 05:43:27;;;;;;;3.78;2.25;;;;;;;28.22;45.42;96543.56;5116518;28;20111;-66
2022/06/01 05:45:53;;;;;;;3.17;2.40;;;;;;;28.49;47.20;96538.84;5116541;28;20123;-64
2022/06/01 05:48:20;;;;;;;5.82;2.50;;;;;;;28.75;46.71;96532.38;5115243;28;20038;-67
2022/06/01 05:50:46;;;;;;;4.97;2.38;;;;;;;28.96;46.40;96534.47;5116480;28;20472;-64
2022/06/01 05:53:12;;;;;;;6.70;2.85;;;;;;;29.09;44.76;96543.84;5116447;28;20031;-67
2022/06/01 05:55:38;;;;;;;8.80;2.67;;;;;;;29.23;45.24;96542.28;5116411;28;20430;-67
2022/06/01 05:58:20;;;;;;;3.85;2.30;;;;;;;29.49;43.34;96544.63;5116249;28;20058;-65
2022/06/01 06:00:47;;;;;;;7.70;2.30;;;;;;;29.77;43.84;96556.78;5116264;28;20027;-69
2022/06/01 06:03:14;;;;;;;5.40;2.35;;;;;;;29.94;44.69;96553.91;5116251;28;20072;-67
2022/06/01 06:08:24;;;;;;;5.35;2.60;;;;;;;30.09;43.24;96556.66;5116463;28;20078;-68
2022/06/01 06:10:50;;;;;;;6.05;2.30;;;;;;;30.26;43.13;96554.69;5116229;28;20480;-71
2022/06/01 06:13:16;;;;;;;3.33;2.33;;;;;;;30.33;42.18;96561.03;5116288;28;20032;-66
2022/06/01 06:15:42;;;;;;;5.40;2.50;;;;;;;30.40;41.70;96558.44;5116019;28;20051;-66
2022/06/01 06:18:11;;;;;;;4.63;2.33;;;;;;;30.65;41.84;96560.88;5115492;28;20028;-65
2022/06/01 06:20:38;;;;;;;4.40;2.40;;;;;;;30.82;40.51;96558.84;5115846;28;20027;-66
2022/06/01 06:23:05;;;;;;;3.50;2.17;;;;;;;30.86;39.92;96557.47;5115781;28;20393;-68
2022/06/01 06:25:30;;;;;;;6.63;2.50;;;;;;;30.91;39.78;96559.56;5115640;28;20060;-67
2022/06/01 06:27:56;;;;;;;7.20;2.40;;;;;;;31.04;38.37;96558.06;5115819;27;20103;-69
2022/06/01 06:30:22;;;;;;;4.80;2.63;;;;;;;31.05;38.94;96554.34;5115733;28;20027;-68
2022/06/01 06:32:47;;;;;;;8.25;2.33;;;;;;;31.10;40.22;96557.31;5115501;28;20476;-64
2022/06/01 06:35:13;;;;;;;10.18;2.65;;;;;;;30.96;38.90;96562.56;5115344;28;20035;-66
2022/06/01 06:37:39;;;;;;;6.22;3.17;;;;;;;30.97;36.40;96556.13;5115582;27;20020;-72
2022/06/01 06:40:05;;;;;;;6.68;2.78;;;;;;;30.80;36.48;96552.81;5115605;28;20027;-66
2022/06/01 06:42:31;;;;;;;6.97;2.60;;;;;;;30.49;40.37;96556.50;5115294;28;20023;-69
2022/06/01 06:44:56;;;;;;;7.22;2.67;;;;;;;30.46;39.03;96563.06;5115485;28;20073;-68
2022/06/01 06:47:22;;;;;;;6.80;2.60;;;;;;;30.27;38.28;96557.19;5115318;28;20016;-69
2022/06/01 06:49:48;;;;;;;3.92;2.45;;;;;;;30.09;38.99;96564.75;5115285;28;20024;-68
2022/06/01 06:52:14;;;;;;;5.97;2.65;;;;;;;30.24;38.98;96559.41;5115372;28;20497;-71
2022/06/01 06:54:40;;;;;;;9.65;2.72;;;;;;;30.45;38.74;96563.25;5115213;27;20023;-67
2022/06/01 06:57:06;;;;;;;8.23;2.80;;;;;;;30.51;38.07;96567.91;5115028;27;20077;-67
2022/06/01 06:59:32;;;;;;;7.43;2.70;;;;;;;30.44;38.67;96564.28;5115134;28;20020;-68
2022/06/01 07:01:57;;;;;;;5.75;2.42;;;;;;;30.41;37.48;96560.09;5115051;28;20023;-61
2022/06/01 07:04:23;;;;;;;3.85;2.65;;;;;;;30.46;37.81;96559.56;5115013;28;20023;-72
2022/06/01 07:06:49;;;;;;;5.60;2.78;;;;;;;30.49;38.13;96565.41;5114944;28;20021;-66
2022/06/01 07:09:15;;;;;;;5.63;2.60;;;;;;;30.58;38.15;96559.94;5114793;28;20016;-68
2022/06/01 07:11:40;;;;;;;7.28;2.95;;;;;;;30.52;37.36;96556.13;5114804;28;20027;-67
2022/06/01 07:14:06;;;;;;;9.02;2.83;;;;;;;30.34;38.53;96557.28;5114736;28;20514;-67
2022/06/01 07:16:34;;;;;;;7.13;3.75;;;;;;;30.46;38.35;96557.69;5114774;28;20110;-68
2022/06/01 07:19:02;;;;;;;5.43;2.95;;;;;;;30.66;36.81;96562.53;5114791;28;20023;-68
2022/06/01 07:21:29;;;;;;;4.75;2.70;;;;;;;30.99;36.75;96562.19;5114654;28;20020;-72
2022/06/01 07:23:55;;;;;;;5.35;2.90;;;;;;;31.07;39.22;96565.81;5113305;28;20373;-69
2022/06/01 07:26:26;;;;;;;4.00;2.95;;;;;;;31.28;40.26;96554.22;5114454;28;20027;-69
2022/06/01 07:28:52;;;;;;;7.90;3.08;;;;;;;31.50;36.78;96554.28;5114321;28;20027;-65
2022/06/01 07:31:18;;;;;;;6.57;2.72;;;;;;;31.60;33.58;96559.38;5114033;28;20015;-68
2022/06/01 07:33:44;;;;;;;6.93;3.05;;;;;;;31.53;36.35;96559.28;5114460;28;20034;-67
2022/06/01 07:36:12;;;;;;;7.82;3.10;;;;;;;31.67;34.41;96562.13;5114146;28;20143;-66
2022/06/01 07:44:09;;;;;;;6.90;3.53;;;;;;;31.24;35.39;96551.03;5114491;28;20042;-67
2022/06/01 07:46:37;;;;;;;5.55;3.10;;;;;;;31.27;36.81;96547.97;5114170;28;20015;-66
2022/06/01 07:49:07;;;;;;;7.60;3.38;;;;;;;31.39;36.31;96544.78;5114138;28;20027;-66
2022/06/01 07:51:34;;;;;;;5.60;2.85;;;;;;;31.62;39.46;96541.94;5114098;28;20088;-69
2022/06/01 07:54:00;;;;;;;5.63;2.95;;;;;;;32.00;36.86;96548.94;5114178;28;20032;-66
2022/06/01 07:56:26;;;;;;;6.88;3.03;;;;;;;31.96;35.07;96552.25;5114174;28;20031;-68
2022/06/01 07:58:51;;;;;;;8.52;3.13;;;;;;;31.55;35.32;96546.44;5114004;28;20072;-64
2022/06/01 08:01:21;;;;;;;12.02;3.15;;;;;;;30.88;36.76;96543.78;5113989;28;20016;-65
2022/06/01 08:03:47;;;;;;;4.00;3.40;;;;;;;30.02;38.64;96543.09;5114059;28;20444;-67
2022/06/01 08:06:14;;;;;;;7.65;3.38;;;;;;;29.82;39.39;96540.03;5113884;28;20023;-71
2022/06/01 08:08:39;;;;;;;4.53;3.17;;;;;;;29.48;40.00;96548.34;5113797;28;20519;-62
2022/06/01 08:11:05;;;;;;;9.20;3.28;;;;;;;29.23;40.44;96555.72;5113828;28;20023;-67
2022/06/01 08:13:30;;;;;;;9.60;3.50;;;;;;;29.06;42.93;96547.75;5113748;28;20023;-65
2022/06/01 08:15:56;;;;;;;8.60;3.78;;;;;;;29.10;44.72;96543.66;5113748;28;20023;-67
2022/06/01 08:18:23;;;;;;;8.10;3.50;;;;;;;29.39;40.19;96552.94;5113664;28;20016;-65
2022/06/01 08:20:50;;;;;;;5.38;3.17;;;;;;;29.41;43.42;96549.22;5113595;28;20020;-70
2022/06/01 08:23:16;;;;;;;6.78;2.92;;;;;;;28.99;41.26;96544.06;5113633;28;20020;-68
2022/06/01 08:25:42;;;;;;;10.50;3.58;;;;;;;28.88;41.91;96547.94;5113650;28;20165;-67
2022/06/01 08:28:09;;;;;;;10.77;3.25;;;;;;;29.08;42.58;96544.88;5113608;28;20031;-63
2022/06/01 08:30:37;;;;;;;8.25;3.95;;;;;;;29.01;40.80;96542.88;5113674;28;20020;-64
2022/06/01 08:33:03;;;;;;;8.00;3.53;;;;;;;28.97;42.82;96541.56;5113486;28;20533;-68
2022/06/01 08:35:35;;;;;;;8.45;3.40;;;;;;;29.35;40.50;96542.72;5113110;28;20043;-67
2022/06/01 08:38:02;;;;;;;9.32;3.83;;;;;;;29.77;40.51;96541.41;5113549;28;20031;-68
2022/06/01 08:40:34;;;;;;;10.98;3.88;;;;;;;30.23;41.04;96537.03;5113789;28;20019;-63
2022/06/01 08:43:09;;;;;;;4.90;3.67;;;;;;;30.57;39.46;96534.81;5117856;28;20015;-62
2022/06/01 08:45:35;;;;;;;8.90;4.00;;;;;;;30.76;38.44;96532.63;5117558;28;20440;-66
2022/06/01 08:48:02;;;;;;;10.25;3.83;;;;;;;31.09;37.70;96539.47;5117637;28;20409;-63
2022/06/01 08:50:35;;;;;;;8.32;4.00;;;;;;;31.16;38.07;96543.06;5117566;28;20023;-68
2022/06/01 08:53:03;;;;;;;11.43;4.10;;;;;;;31.34;40.05;96547.22;5117578;28;20658;-69
2022/06/01 08:56:19;;;;;;;7.07;3.97;;;;;;;31.71;34.72;96547.19;5117572;28;20020;-65
2022/06/01 08:58:49;;;;;;;7.38;3.95;;;;;;;31.64;34.64;96537.16;5100199;28;20556;-65
2022/06/01 09:01:29;;;;;;;7.70;4.10;;;;;;;31.55;36.82;96540.19;5117621;28;20106;-66
2022/06/01 09:04:22;;;;;;;8.90;4.22;;;;;;;31.63;36.96;96548.16;5117454;28;20063;-64
2022/06/01 09:07:09;;;;;;;6.32;3.65;;;;;;;31.55;35.33;96537.47;5117269;28;20080;-67
2022/06/01 09:09:48;;;;;;;7.43;3.95;;;;;;;31.21;37.55;96539.81;5117290;28;20112;-65
2022/06/01 09:12:14;;;;;;;5.07;3.55;;;;;;;31.30;37.72;96532.41;5117289;28;20465;-68
2022/06/01 09:14:44;;;;;;;8.35;3.53;;;;;;;31.59;37.19;96539.63;5117161;28;20048;-67
2022/06/01 09:17:10;;;;;;;11.30;4.03;;;;;;;31.69;37.84;96539.28;5117062;28;20024;-68
2022/06/01 09:22:38;;;;;;;8.00;3.25;;;;;;;32.02;37.05;96538.78;5085351;28;20118;-66
2022/06/01 09:25:08;;;;;;;;;;;;;;;32.02;35.36;96535.22;5117270;28;20023;-65
2022/06/01 09:27:36;;;;;;;8.40;3.83;;;;;;;31.65;36.47;96536.16;5116896;28;20092;-64
2022/06/01 09:30:16;;;;;;;9.07;3.65;;;;;;;31.47;38.62;96530.34;5116814;28;20102;-66
2022/06/01 09:32:41;;;;;;;14.48;4.07;;;;;;;31.58;37.55;96534.41;5116904;28;20023;-67
2022/06/01 09:35:10;;;;;;;8.15;3.85;;;;;;;31.40;34.12;96532.97;5116547;28;20131;-63
2022/06/01 09:37:46;;;;;;;13.10;4.40;;;;;;;31.04;36.10;96531.06;5116754;28;20044;-63
2022/06/01 09:40:26;;;;;;;8.18;4.07;;;;;;;30.98;41.75;96532.66;5116845;28;20027;-65
2022/06/01 09:42:54;;;;;;;9.30;3.70;;;;;;;31.17;38.24;96530.38;5116696;27;20481;-64
2022/06/01 09:45:25;;;;;;;5.38;3.92;;;;;;;31.36;37.84;96531.69;5116530;28;20028;-67
2022/06/01 09:47:54;;;;;;;8.52;3.88;;;;;;;31.75;36.96;96529.56;5116473;28;20032;-64
2022/06/01 09:50:24;;;;;;;7.43;3.75;;;;;;;31.99;35.81;96533.75;5116388;28;20024;-67
2022/06/01 09:52:54;;;;;;;;;;;;;;;31.97;35.90;96530.44;5116173;28;20043;-65
2022/06/01 09:55:24;;;;;;;13.25;3.80;;;;;;;31.82;34.50;96526.94;5116407;28;19915;-68
2022/06/01 09:58:07;;;;;;;7.88;4.10;;;;;;;31.43;33.51;96529.06;5116346;28;20030;-65
2022/06/01 10:06:34;;;;;;;8.00;3.92;;;;;;;30.73;38.73;96528.38;5073586;28;20115;-65
2022/06/01 10:09:10;;;;;;;10.70;3.53;;;;;;;30.46;37.26;96527.19;5073356;28;20104;-67
2022/06/01 10:11:44;;;;;;;6.10;3.60;;;;;;;30.23;38.33;96525.38;5095995;28;20088;-65
2022/06/01 10:14:18;;;;;;;9.30;4.10;;;;;;;30.08;38.34;96525.34;5116087;28;20496;-66
2022/06/01 10:16:44;;;;;;;13.70;4.05;;;;;;;29.94;42.71;96527.81;5115996;28;20030;-67
2022/06/01 10:19:13;;;;;;;8.00;4.15;;;;;;;29.83;41.01;96520.16;5115921;28;20027;-67
2022/06/01 10:21:45;;;;;;;15.93;4.82;;;;;;;29.87;42.15;96516.94;5115918;28;20749;-69
2022/06/01 10:24:17;;;;;;;8.07;4.30;;;;;;;30.10;45.37;96524.13;5115743;28;20070;-61
2022/06/01 10:26:55;;;;;;;13.95;4.97;;;;;;;30.04;47.42;96521.34;5115805;28;20047;-67
2022/06/01 10:29:26;;;;;;;10.60;4.65;;;;;;;29.95;46.61;96521.38;5114541;28;20423;-68
2022/06/01 10:32:05;;;;;;;8.00;4.63;;;;;;;29.70;45.58;96529.69;5115793;27;20038;-64
2022/06/01 10:34:54;;;;;;;8.88;4.35;;;;;;;29.31;45.41;96519.84;5115354;28;20055;-68
2022/06/01 10:37:29;;;;;;;13.82;4.55;;;;;;;29.09;47.11;96522.31;5115510;28;20110;-63
2022/06/01 10:40:01;;;;;;;7.68;3.92;;;;;;;28.94;43.21;96519.53;5115557;28;20085;-65
2022/06/01 10:45:23;;;;;;;6.78;4.00;;;;;;;28.81;43.36;96523.59;5115425;28;20042;-66
2022/06/01 10:47:54;;;;;;;9.10;4.10;;;;;;;28.81;45.16;96522.75;5115508;28;20092;-65
2022/06/01 10:50:24;;;;;;;13.35;4.65;;;;;;;28.87;41.46;96530.94;5115353;28;20028;-63
2022/06/01 10:53:13;;;;;;;7.53;4.35;;;;;;;28.96;42.13;96533.66;5115574;28;20098;-64
2022/06/01 10:55:44;;;;;;;5.00;3.42;;;;;;;28.89;40.21;96541.53;5115353;27;20035;-64
2022/06/01 10:58:21;;;;;;;5.00;2.97;;;;;;;28.24;39.18;96557.69;5115307;28;20027;-65
2022/06/01 11:00:55;;;;;;;6.30;2.90;;;;;;;27.49;42.08;96571.06;5115148;28;20038;-64
2022/06/01 11:03:51;;;;;;;5.95;3.15;;;;;;;26.73;45.75;96577.16;5115023;28;20023;-65
2022/06/01 11:06:54;;;;;;;4.65;3.13;;;;;;;26.32;47.94;96577.72;5114324;28;20032;-69
2022/06/01 11:09:22;;;;;;;8.27;3.65;;;;;;;25.54;49.94;96588.06;5114977;28;20027;-66
2022/06/01 11:12:25;;;;;;;3.42;2.97;;;;;;;24.91;51.60;96579.84;5114906;28;20026;-64
2022/06/01 11:14:53;;;;;;;8.32;2.97;;;;;;;24.59;52.96;96585.44;5114890;28;20023;-64
2022/06/01 11:17:54;;;;;;;4.50;2.88;;;;;;;24.31;53.07;96581.84;5114746;28;20027;-64
2022/06/01 11:20:54;;;;;;;6.47;2.13;;;;;;;24.00;51.80;96571.31;5101579;28;20047;-67
2022/06/01 11:23:32;;;;;;;4.70;2.60;;;;;;;23.73;50.77;96573.72;5114807;28;20145;-65
2022/06/01 11:26:13;;;;;;;3.78;2.38;;;;;;;23.66;49.55;96577.94;5114429;28;20035;-64
2022/06/01 11:29:27;;;;;;;4.45;2.05;;;;;;;23.71;48.20;96586.38;5114716;28;20031;-67
2022/06/01 11:31:58;;;;;;;2.72;1.48;;;;;;;23.70;48.03;96590.03;5087529;28;20031;-68
2022/06/01 11:34:31;;;;;;;5.40;1.98;;;;;;;23.76;48.83;96599.28;5114488;28;20077;-68
2022/06/01 11:37:10;;;;;;;5.03;2.13;;;;;;;23.72;51.59;96602.25;5114503;28;20052;-66
2022/06/01 11:39:50;;;;;;;6.70;2.20;;;;;;;23.71;52.02;96597.91;5114578;28;20028;-68
2022/06/01 11:42:26;;;;;;;4.00;2.10;;;;;;;23.67;51.68;96595.66;5114360;28;20035;-63
2022/06/01 11:45:18;;;;;;;3.83;2.13;;;;;;;23.69;46.81;96591.03;5114271;28;20439;-63
2022/06/01 11:47:50;;;;;;;3.78;2.03;;;;;;;23.52;47.25;96593.38;5114218;28;20035;-63
2022/06/01 11:50:16;;;;;;;7.38;2.05;;;;;;;23.60;48.05;96590.03;5114128;28;20042;-64
2022/06/01 11:52:52;;;;;;;7.93;1.77;;;;;;;23.51;48.46;96583.69;5114118;28;20019;-67
2022/06/01 11:55:30;;;;;;;3.25;1.67;;;;;;;23.47;50.19;96583.13;5114083;28;20377;-68
2022/06/01 11:58:18;;;;;;;4.00;2.40;;;;;;;23.45;49.79;96574.41;5114312;28;20111;-67
2022/06/01 12:00:55;;;;;;;2.83;2.05;;;;;;;23.53;49.69;96567.53;5114208;28;20103;-65
2022/06/01 12:03:21;;;;;;;5.47;2.47;;;;;;;23.45;50.92;96558.41;5113884;28;20032;-66
2022/06/01 12:06:13;;;;;;;6.88;2.80;;;;;;;23.48;51.31;96544.78;5113731;28;20427;-64
2022/06/01 12:08:45;;;;;;;4.45;2.22;;;;;;;23.53;50.42;96538.16;5113921;28;20057;-63